sensor_id;sensor_type;location;lat;lon;timestamp;P1;durP1;ratioP1;P2;durP2;ratioP2
76256;SDS011;65074;50.436;8.672;2024-01-30T00:00:33;9.52;;;4.32;;
76256;SDS011;65074;50.436;8.672;2024-01-30T00:02:59;7.05;;;3.60;;
76256;SDS011;65074;50.436;8.672;2024-01-30T00:05:24;6.38;;;4.68;;
76256;SDS011;65074;50.436;8.672;2024-01-30T00:07:50;7.95;;;4.63;;
76256;SDS011;65074;50.436;8.672;2024-01-30T00:10:15;8.88;;;4.43;;
76256;SDS011;65074;50.436;8.672;2024-01-30T00:12:40;8.57;;;4.50;;
76256;SDS011;65074;50.436;8.672;2024-01-30T00:15:06;5.22;;;3.42;;
76256;SDS011;65074;50.436;8.672;2024-01-30T00:17:34;6.63;;;4.30;;
76256;SDS011;65074;50.436;8.672;2024-01-30T00:20:00;4.10;;;2.60;;
76256;SDS011;65074;50.436;8.672;2024-01-30T00:22:26;5.68;;;3.38;;
76256;SDS011;65074;50.436;8.672;2024-01-30T00:24:51;5.30;;;2.67;;
76256;SDS011;65074;50.436;8.672;2024-01-30T00:27:16;7.60;;;3.03;;
76256;SDS011;65074;50.436;8.672;2024-01-30T00:29:42;4.10;;;3.38;;
76256;SDS011;65074;50.436;8.672;2024-01-30T00:32:07;5.38;;;4.15;;
76256;SDS011;65074;50.436;8.672;2024-01-30T00:34:32;6.63;;;3.78;;
76256;SDS011;65074;50.436;8.672;2024-01-30T00:36:58;5.10;;;3.22;;
76256;SDS011;65074;50.436;8.672;2024-01-30T00:39:23;7.30;;;3.30;;
76256;SDS011;65074;50.436;8.672;2024-01-30T00:41:48;5.45;;;3.97;;
76256;SDS011;65074;50.436;8.672;2024-01-30T00:44:14;5.95;;;3.17;;
76256;SDS011;65074;50.436;8.672;2024-01-30T00:46:39;3.78;;;3.13;;
76256;SDS011;65074;50.436;8.672;2024-01-30T00:49:04;5.40;;;3.45;;
76256;SDS011;65074;50.436;8.672;2024-01-30T00:51:30;8.82;;;4.40;;
76256;SDS011;65074;50.436;8.672;2024-01-30T00:53:55;6.38;;;4.35;;
76256;SDS011;65074;50.436;8.672;2024-01-30T00:56:20;8.10;;;3.78;;
76256;SDS011;65074;50.436;8.672;2024-01-30T00:58:46;5.68;;;3.15;;
76256;SDS011;65074;50.436;8.672;2024-01-30T01:01:11;8.27;;;3.08;;
76256;SDS011;65074;50.436;8.672;2024-01-30T01:03:37;5.03;;;2.72;;
76256;SDS011;65074;50.436;8.672;2024-01-30T01:06:02;4.28;;;2.90;;
76256;SDS011;65074;50.436;8.672;2024-01-30T01:08:28;4.75;;;3.58;;
76256;SDS011;65074;50.436;8.672;2024-01-30T01:10:53;6.50;;;3.25;;
76256;SDS011;65074;50.436;8.672;2024-01-30T01:13:18;7.72;;;5.05;;
76256;SDS011;65074;50.436;8.672;2024-01-30T01:15:44;4.18;;;2.88;;
76256;SDS011;65074;50.436;8.672;2024-01-30T01:18:09;5.43;;;3.15;;
76256;SDS011;65074;50.436;8.672;2024-01-30T01:20:34;6.60;;;4.68;;
76256;SDS011;65074;50.436;8.672;2024-01-30T01:23:00;8.88;;;4.75;;
76256;SDS011;65074;50.436;8.672;2024-01-30T01:25:26;10.93;;;4.93;;
76256;SDS011;65074;50.436;8.672;2024-01-30T01:27:51;8.82;;;5.10;;
76256;SDS011;65074;50.436;8.672;2024-01-30T01:30:17;4.38;;;2.58;;
76256;SDS011;65074;50.436;8.672;2024-01-30T01:32:47;8.90;;;4.60;;
76256;SDS011;65074;50.436;8.672;2024-01-30T01:35:20;13.07;;;5.38;;
76256;SDS011;65074;50.436;8.672;2024-01-30T01:37:47;8.82;;;4.90;;
76256;SDS011;65074;50.436;8.672;2024-01-30T01:40:19;6.45;;;2.95;;
76256;SDS011;65074;50.436;8.672;2024-01-30T01:42:45;8.40;;;3.83;;
76256;SDS011;65074;50.436;8.672;2024-01-30T01:45:10;10.15;;;4.82;;
76256;SDS011;65074;50.436;8.672;2024-01-30T01:47:36;5.82;;;4.18;;
76256;SDS011;65074;50.436;8.672;2024-01-30T01:50:01;7.22;;;4.95;;
76256;SDS011;65074;50.436;8.672;2024-01-30T01:52:27;5.53;;;3.92;;
76256;SDS011;65074;50.436;8.672;2024-01-30T01:54:53;6.15;;;3.58;;
76256;SDS011;65074;50.436;8.672;2024-01-30T01:57:19;10.15;;;4.10;;
76256;SDS011;65074;50.436;8.672;2024-01-30T01:59:44;6.05;;;4.60;;
76256;SDS011;65074;50.436;8.672;2024-01-30T02:02:10;7.38;;;3.75;;
76256;SDS011;65074;50.436;8.672;2024-01-30T02:04:37;8.63;;;3.80;;
76256;SDS011;65074;50.436;8.672;2024-01-30T02:07:03;7.40;;;4.00;;
76256;SDS011;65074;50.436;8.672;2024-01-30T02:09:28;4.32;;;3.63;;
76256;SDS011;65074;50.436;8.672;2024-01-30T02:11:53;4.80;;;3.63;;
76256;SDS011;65074;50.436;8.672;2024-01-30T02:14:20;4.43;;;3.03;;
76256;SDS011;65074;50.436;8.672;2024-01-30T02:16:45;7.75;;;3.92;;
76256;SDS011;65074;50.436;8.672;2024-01-30T02:19:10;5.00;;;3.15;;
76256;SDS011;65074;50.436;8.672;2024-01-30T02:21:36;7.03;;;3.45;;
76256;SDS011;65074;50.436;8.672;2024-01-30T02:24:02;2.50;;;1.88;;
76256;SDS011;65074;50.436;8.672;2024-01-30T02:26:28;5.47;;;2.90;;
76256;SDS011;65074;50.436;8.672;2024-01-30T02:28:53;6.20;;;3.92;;
76256;SDS011;65074;50.436;8.672;2024-01-30T02:31:19;3.88;;;2.33;;
76256;SDS011;65074;50.436;8.672;2024-01-30T02:33:44;4.75;;;3.38;;
76256;SDS011;65074;50.436;8.672;2024-01-30T02:36:09;6.03;;;3.22;;
76256;SDS011;65074;50.436;8.672;2024-01-30T02:38:35;5.45;;;2.58;;
76256;SDS011;65074;50.436;8.672;2024-01-30T02:41:00;2.15;;;1.95;;
76256;SDS011;65074;50.436;8.672;2024-01-30T02:43:25;4.63;;;3.60;;
76256;SDS011;65074;50.436;8.672;2024-01-30T02:45:51;8.65;;;2.88;;
76256;SDS011;65074;50.436;8.672;2024-01-30T02:48:16;5.07;;;2.83;;
76256;SDS011;65074;50.436;8.672;2024-01-30T02:50:42;1.85;;;1.73;;
76256;SDS011;65074;50.436;8.672;2024-01-30T02:53:07;6.60;;;3.67;;
76256;SDS011;65074;50.436;8.672;2024-01-30T02:55:33;3.47;;;2.35;;
76256;SDS011;65074;50.436;8.672;2024-01-30T02:57:59;3.78;;;2.67;;
76256;SDS011;65074;50.436;8.672;2024-01-30T03:00:24;2.85;;;2.65;;
76256;SDS011;65074;50.436;8.672;2024-01-30T03:02:49;3.92;;;2.30;;
76256;SDS011;65074;50.436;8.672;2024-01-30T03:05:15;6.43;;;3.60;;
76256;SDS011;65074;50.436;8.672;2024-01-30T03:07:40;1.88;;;1.63;;
76256;SDS011;65074;50.436;8.672;2024-01-30T03:10:05;4.35;;;2.55;;
76256;SDS011;65074;50.436;8.672;2024-01-30T03:12:31;4.43;;;2.83;;
76256;SDS011;65074;50.436;8.672;2024-01-30T03:14:57;4.82;;;3.17;;
76256;SDS011;65074;50.436;8.672;2024-01-30T03:17:22;2.78;;;2.33;;
76256;SDS011;65074;50.436;8.672;2024-01-30T03:19:49;4.32;;;2.30;;
76256;SDS011;65074;50.436;8.672;2024-01-30T03:22:14;2.03;;;1.67;;
76256;SDS011;65074;50.436;8.672;2024-01-30T03:24:40;2.85;;;2.65;;
76256;SDS011;65074;50.436;8.672;2024-01-30T03:27:05;2.90;;;2.35;;
76256;SDS011;65074;50.436;8.672;2024-01-30T03:29:30;6.00;;;2.40;;
76256;SDS011;65074;50.436;8.672;2024-01-30T03:31:56;3.85;;;2.05;;
76256;SDS011;65074;50.436;8.672;2024-01-30T03:34:21;3.80;;;2.65;;
76256;SDS011;65074;50.436;8.672;2024-01-30T03:36:46;3.72;;;2.70;;
76256;SDS011;65074;50.436;8.672;2024-01-30T03:39:12;2.67;;;2.47;;
76256;SDS011;65074;50.436;8.672;2024-01-30T03:41:37;4.55;;;3.40;;
76256;SDS011;65074;50.436;8.672;2024-01-30T03:44:02;4.13;;;2.60;;
76256;SDS011;65074;50.436;8.672;2024-01-30T03:46:28;5.55;;;2.60;;
76256;SDS011;65074;50.436;8.672;2024-01-30T03:48:53;2.97;;;1.90;;
76256;SDS011;65074;50.436;8.672;2024-01-30T03:51:18;2.70;;;2.22;;
76256;SDS011;65074;50.436;8.672;2024-01-30T03:53:44;2.95;;;2.30;;
76256;SDS011;65074;50.436;8.672;2024-01-30T03:56:11;5.32;;;3.15;;
76256;SDS011;65074;50.436;8.672;2024-01-30T03:58:38;5.50;;;2.10;;
76256;SDS011;65074;50.436;8.672;2024-01-30T04:01:04;6.13;;;3.10;;
76256;SDS011;65074;50.436;8.672;2024-01-30T04:03:29;4.82;;;2.40;;
76256;SDS011;65074;50.436;8.672;2024-01-30T04:05:54;2.33;;;1.73;;
76256;SDS011;65074;50.436;8.672;2024-01-30T04:08:20;4.82;;;3.00;;
76256;SDS011;65074;50.436;8.672;2024-01-30T04:10:46;4.00;;;3.10;;
76256;SDS011;65074;50.436;8.672;2024-01-30T04:13:11;4.07;;;3.63;;
76256;SDS011;65074;50.436;8.672;2024-01-30T04:15:37;5.97;;;2.55;;
76256;SDS011;65074;50.436;8.672;2024-01-30T04:18:02;2.75;;;1.92;;
76256;SDS011;65074;50.436;8.672;2024-01-30T04:20:28;2.58;;;2.30;;
76256;SDS011;65074;50.436;8.672;2024-01-30T04:22:54;2.40;;;2.05;;
76256;SDS011;65074;50.436;8.672;2024-01-30T04:25:19;4.68;;;2.78;;
76256;SDS011;65074;50.436;8.672;2024-01-30T04:27:45;4.82;;;3.25;;
76256;SDS011;65074;50.436;8.672;2024-01-30T04:30:10;5.43;;;2.83;;
76256;SDS011;65074;50.436;8.672;2024-01-30T04:32:36;5.07;;;2.33;;
76256;SDS011;65074;50.436;8.672;2024-01-30T04:35:02;6.32;;;3.00;;
76256;SDS011;65074;50.436;8.672;2024-01-30T04:37:27;4.53;;;2.78;;
76256;SDS011;65074;50.436;8.672;2024-01-30T04:39:53;9.23;;;2.42;;
76256;SDS011;65074;50.436;8.672;2024-01-30T04:42:18;7.15;;;2.80;;
76256;SDS011;65074;50.436;8.672;2024-01-30T04:44:44;2.55;;;2.35;;
76256;SDS011;65074;50.436;8.672;2024-01-30T04:47:10;5.13;;;1.98;;
76256;SDS011;65074;50.436;8.672;2024-01-30T04:49:38;5.20;;;2.58;;
76256;SDS011;65074;50.436;8.672;2024-01-30T04:52:04;5.30;;;2.15;;
76256;SDS011;65074;50.436;8.672;2024-01-30T04:54:30;3.00;;;2.72;;
76256;SDS011;65074;50.436;8.672;2024-01-30T04:56:55;3.63;;;2.50;;
76256;SDS011;65074;50.436;8.672;2024-01-30T04:59:21;3.00;;;2.75;;
76256;SDS011;65074;50.436;8.672;2024-01-30T05:01:46;5.65;;;2.10;;
76256;SDS011;65074;50.436;8.672;2024-01-30T05:04:11;5.10;;;3.08;;
76256;SDS011;65074;50.436;8.672;2024-01-30T05:06:37;4.45;;;2.38;;
76256;SDS011;65074;50.436;8.672;2024-01-30T05:09:02;5.70;;;3.30;;
76256;SDS011;65074;50.436;8.672;2024-01-30T05:11:29;4.70;;;2.20;;
76256;SDS011;65074;50.436;8.672;2024-01-30T05:13:55;4.57;;;3.55;;
76256;SDS011;65074;50.436;8.672;2024-01-30T05:16:20;3.25;;;2.42;;
76256;SDS011;65074;50.436;8.672;2024-01-30T05:18:45;6.07;;;2.80;;
76256;SDS011;65074;50.436;8.672;2024-01-30T05:21:11;4.22;;;2.60;;
76256;SDS011;65074;50.436;8.672;2024-01-30T05:23:36;6.25;;;2.78;;
76256;SDS011;65074;50.436;8.672;2024-01-30T05:26:02;3.60;;;2.65;;
76256;SDS011;65074;50.436;8.672;2024-01-30T05:28:28;2.20;;;2.10;;
76256;SDS011;65074;50.436;8.672;2024-01-30T05:30:54;7.63;;;3.67;;
76256;SDS011;65074;50.436;8.672;2024-01-30T05:33:20;7.80;;;3.75;;
76256;SDS011;65074;50.436;8.672;2024-01-30T05:35:46;3.33;;;1.85;;
76256;SDS011;65074;50.436;8.672;2024-01-30T05:38:11;2.55;;;2.08;;
76256;SDS011;65074;50.436;8.672;2024-01-30T05:40:37;4.05;;;2.70;;
76256;SDS011;65074;50.436;8.672;2024-01-30T05:43:03;2.95;;;2.03;;
76256;SDS011;65074;50.436;8.672;2024-01-30T05:45:28;5.18;;;2.90;;
76256;SDS011;65074;50.436;8.672;2024-01-30T05:47:53;3.88;;;2.47;;
76256;SDS011;65074;50.436;8.672;2024-01-30T05:50:19;2.10;;;1.85;;
76256;SDS011;65074;50.436;8.672;2024-01-30T05:52:45;6.80;;;2.83;;
76256;SDS011;65074;50.436;8.672;2024-01-30T05:55:11;3.50;;;3.00;;
76256;SDS011;65074;50.436;8.672;2024-01-30T05:57:37;3.25;;;2.67;;
76256;SDS011;65074;50.436;8.672;2024-01-30T06:00:04;3.03;;;1.80;;
76256;SDS011;65074;50.436;8.672;2024-01-30T06:02:31;4.50;;;1.95;;
76256;SDS011;65074;50.436;8.672;2024-01-30T06:04:57;3.42;;;1.88;;
76256;SDS011;65074;50.436;8.672;2024-01-30T06:07:23;3.47;;;2.45;;
76256;SDS011;65074;50.436;8.672;2024-01-30T06:09:48;1.92;;;1.70;;
76256;SDS011;65074;50.436;8.672;2024-01-30T06:12:14;4.18;;;3.20;;
76256;SDS011;65074;50.436;8.672;2024-01-30T06:14:39;3.30;;;2.83;;
76256;SDS011;65074;50.436;8.672;2024-01-30T06:17:04;4.25;;;2.28;;
76256;SDS011;65074;50.436;8.672;2024-01-30T06:19:30;2.20;;;2.03;;
76256;SDS011;65074;50.436;8.672;2024-01-30T06:21:55;5.03;;;2.40;;
76256;SDS011;65074;50.436;8.672;2024-01-30T06:24:20;3.30;;;2.63;;
76256;SDS011;65074;50.436;8.672;2024-01-30T06:26:46;6.40;;;3.33;;
76256;SDS011;65074;50.436;8.672;2024-01-30T06:29:11;4.78;;;3.17;;
76256;SDS011;65074;50.436;8.672;2024-01-30T06:31:43;3.20;;;2.90;;
76256;SDS011;65074;50.436;8.672;2024-01-30T06:34:09;2.78;;;1.73;;
76256;SDS011;65074;50.436;8.672;2024-01-30T06:36:35;5.60;;;1.83;;
76256;SDS011;65074;50.436;8.672;2024-01-30T06:39:01;6.32;;;3.30;;
76256;SDS011;65074;50.436;8.672;2024-01-30T06:41:27;2.70;;;2.08;;
76256;SDS011;65074;50.436;8.672;2024-01-30T06:43:52;2.47;;;2.05;;
76256;SDS011;65074;50.436;8.672;2024-01-30T06:46:19;3.72;;;2.42;;
76256;SDS011;65074;50.436;8.672;2024-01-30T06:48:45;3.67;;;2.65;;
76256;SDS011;65074;50.436;8.672;2024-01-30T06:51:13;2.67;;;2.10;;
76256;SDS011;65074;50.436;8.672;2024-01-30T06:53:38;2.75;;;2.08;;
76256;SDS011;65074;50.436;8.672;2024-01-30T06:56:03;15.93;;;2.97;;
76256;SDS011;65074;50.436;8.672;2024-01-30T06:58:29;2.15;;;1.95;;
76256;SDS011;65074;50.436;8.672;2024-01-30T07:00:55;3.88;;;2.45;;
76256;SDS011;65074;50.436;8.672;2024-01-30T07:03:21;4.97;;;2.80;;
76256;SDS011;65074;50.436;8.672;2024-01-30T07:05:46;5.68;;;2.75;;
76256;SDS011;65074;50.436;8.672;2024-01-30T07:08:12;4.72;;;2.67;;
76256;SDS011;65074;50.436;8.672;2024-01-30T07:10:37;2.50;;;2.25;;
76256;SDS011;65074;50.436;8.672;2024-01-30T07:13:02;5.70;;;2.97;;
76256;SDS011;65074;50.436;8.672;2024-01-30T07:15:30;3.30;;;2.03;;
76256;SDS011;65074;50.436;8.672;2024-01-30T07:17:55;5.15;;;2.67;;
76256;SDS011;65074;50.436;8.672;2024-01-30T07:20:20;3.10;;;2.80;;
76256;SDS011;65074;50.436;8.672;2024-01-30T07:22:46;7.03;;;3.83;;
76256;SDS011;65074;50.436;8.672;2024-01-30T07:25:11;3.42;;;2.25;;
76256;SDS011;65074;50.436;8.672;2024-01-30T07:27:37;2.95;;;1.95;;
76256;SDS011;65074;50.436;8.672;2024-01-30T07:30:02;2.20;;;1.65;;
76256;SDS011;65074;50.436;8.672;2024-01-30T07:32:27;3.90;;;3.30;;
76256;SDS011;65074;50.436;8.672;2024-01-30T07:34:53;2.35;;;1.92;;
76256;SDS011;65074;50.436;8.672;2024-01-30T07:37:18;2.63;;;2.03;;
76256;SDS011;65074;50.436;8.672;2024-01-30T07:39:44;7.35;;;3.25;;
76256;SDS011;65074;50.436;8.672;2024-01-30T07:42:10;4.45;;;3.03;;
76256;SDS011;65074;50.436;8.672;2024-01-30T07:44:35;4.93;;;3.03;;
76256;SDS011;65074;50.436;8.672;2024-01-30T07:47:00;4.50;;;3.17;;
76256;SDS011;65074;50.436;8.672;2024-01-30T07:49:26;4.30;;;3.42;;
76256;SDS011;65074;50.436;8.672;2024-01-30T07:51:51;6.20;;;2.50;;
76256;SDS011;65074;50.436;8.672;2024-01-30T07:54:17;5.28;;;3.58;;
76256;SDS011;65074;50.436;8.672;2024-01-30T07:56:42;7.50;;;2.80;;
76256;SDS011;65074;50.436;8.672;2024-01-30T07:59:11;4.63;;;2.38;;
76256;SDS011;65074;50.436;8.672;2024-01-30T08:01:37;6.97;;;2.97;;
76256;SDS011;65074;50.436;8.672;2024-01-30T08:04:02;5.20;;;2.53;;
76256;SDS011;65074;50.436;8.672;2024-01-30T08:06:28;3.45;;;2.58;;
76256;SDS011;65074;50.436;8.672;2024-01-30T08:08:53;3.38;;;1.92;;
76256;SDS011;65074;50.436;8.672;2024-01-30T08:11:21;13.43;;;3.30;;
76256;SDS011;65074;50.436;8.672;2024-01-30T08:13:52;5.00;;;3.00;;
76256;SDS011;65074;50.436;8.672;2024-01-30T08:16:18;4.78;;;3.72;;
76256;SDS011;65074;50.436;8.672;2024-01-30T08:18:43;9.43;;;3.60;;
76256;SDS011;65074;50.436;8.672;2024-01-30T08:21:08;8.05;;;3.33;;
76256;SDS011;65074;50.436;8.672;2024-01-30T08:23:34;4.07;;;2.25;;
76256;SDS011;65074;50.436;8.672;2024-01-30T08:25:59;12.93;;;2.90;;
76256;SDS011;65074;50.436;8.672;2024-01-30T08:28:25;5.43;;;2.80;;
76256;SDS011;65074;50.436;8.672;2024-01-30T08:30:51;7.55;;;3.85;;
76256;SDS011;65074;50.436;8.672;2024-01-30T08:33:16;5.60;;;3.72;;
76256;SDS011;65074;50.436;8.672;2024-01-30T08:35:42;3.05;;;2.75;;
76256;SDS011;65074;50.436;8.672;2024-01-30T08:38:07;10.30;;;3.55;;
76256;SDS011;65074;50.436;8.672;2024-01-30T08:40:33;5.68;;;4.90;;
76256;SDS011;65074;50.436;8.672;2024-01-30T08:42:58;4.78;;;3.45;;
76256;SDS011;65074;50.436;8.672;2024-01-30T08:45:23;5.97;;;3.78;;
76256;SDS011;65074;50.436;8.672;2024-01-30T08:47:49;6.47;;;4.32;;
76256;SDS011;65074;50.436;8.672;2024-01-30T08:50:14;4.45;;;4.03;;
76256;SDS011;65074;50.436;8.672;2024-01-30T08:52:39;5.55;;;3.78;;
76256;SDS011;65074;50.436;8.672;2024-01-30T08:55:05;9.27;;;4.15;;
76256;SDS011;65074;50.436;8.672;2024-01-30T08:57:30;4.47;;;3.13;;
76256;SDS011;65074;50.436;8.672;2024-01-30T08:59:56;3.83;;;2.75;;
76256;SDS011;65074;50.436;8.672;2024-01-30T09:02:21;5.10;;;3.67;;
76256;SDS011;65074;50.436;8.672;2024-01-30T09:04:47;6.00;;;3.90;;
76256;SDS011;65074;50.436;8.672;2024-01-30T09:07:12;7.70;;;5.43;;
76256;SDS011;65074;50.436;8.672;2024-01-30T09:09:39;6.32;;;4.07;;
76256;SDS011;65074;50.436;8.672;2024-01-30T09:12:06;6.82;;;3.60;;
76256;SDS011;65074;50.436;8.672;2024-01-30T09:14:34;5.90;;;2.83;;
76256;SDS011;65074;50.436;8.672;2024-01-30T09:16:59;11.93;;;4.47;;
76256;SDS011;65074;50.436;8.672;2024-01-30T09:19:25;6.32;;;3.90;;
76256;SDS011;65074;50.436;8.672;2024-01-30T09:21:50;7.32;;;4.88;;
76256;SDS011;65074;50.436;8.672;2024-01-30T09:24:15;7.47;;;4.68;;
76256;SDS011;65074;50.436;8.672;2024-01-30T09:26:40;9.70;;;5.05;;
76256;SDS011;65074;50.436;8.672;2024-01-30T09:29:06;3.20;;;2.70;;
76256;SDS011;65074;50.436;8.672;2024-01-30T09:31:32;7.40;;;4.90;;
76256;SDS011;65074;50.436;8.672;2024-01-30T09:33:57;12.68;;;4.75;;
76256;SDS011;65074;50.436;8.672;2024-01-30T09:36:23;10.98;;;4.30;;
76256;SDS011;65074;50.436;8.672;2024-01-30T09:38:48;10.23;;;6.00;;
76256;SDS011;65074;50.436;8.672;2024-01-30T09:41:13;9.95;;;3.78;;
76256;SDS011;65074;50.436;8.672;2024-01-30T09:43:40;10.55;;;4.90;;
76256;SDS011;65074;50.436;8.672;2024-01-30T09:46:13;7.95;;;4.57;;
76256;SDS011;65074;50.436;8.672;2024-01-30T09:48:41;7.35;;;3.60;;
76256;SDS011;65074;50.436;8.672;2024-01-30T09:51:08;9.90;;;6.43;;
76256;SDS011;65074;50.436;8.672;2024-01-30T09:53:35;8.80;;;5.22;;
76256;SDS011;65074;50.436;8.672;2024-01-30T09:56:02;9.82;;;5.72;;
76256;SDS011;65074;50.436;8.672;2024-01-30T09:58:27;7.50;;;4.47;;
76256;SDS011;65074;50.436;8.672;2024-01-30T10:00:53;10.13;;;5.95;;
76256;SDS011;65074;50.436;8.672;2024-01-30T10:03:19;9.77;;;5.60;;
76256;SDS011;65074;50.436;8.672;2024-01-30T10:05:46;10.38;;;5.28;;
76256;SDS011;65074;50.436;8.672;2024-01-30T10:08:19;8.65;;;6.22;;
76256;SDS011;65074;50.436;8.672;2024-01-30T10:10:47;9.25;;;4.65;;
76256;SDS011;65074;50.436;8.672;2024-01-30T10:13:15;7.60;;;3.75;;
76256;SDS011;65074;50.436;8.672;2024-01-30T10:15:41;9.43;;;5.55;;
76256;SDS011;65074;50.436;8.672;2024-01-30T10:18:06;9.75;;;5.07;;
76256;SDS011;65074;50.436;8.672;2024-01-30T10:20:32;7.97;;;4.97;;
76256;SDS011;65074;50.436;8.672;2024-01-30T10:22:58;13.98;;;5.63;;
76256;SDS011;65074;50.436;8.672;2024-01-30T10:25:25;7.75;;;4.30;;
76256;SDS011;65074;50.436;8.672;2024-01-30T10:27:54;10.18;;;5.60;;
76256;SDS011;65074;50.436;8.672;2024-01-30T10:30:20;9.10;;;6.03;;
76256;SDS011;65074;50.436;8.672;2024-01-30T10:32:46;7.82;;;5.70;;
76256;SDS011;65074;50.436;8.672;2024-01-30T10:35:12;6.80;;;4.85;;
76256;SDS011;65074;50.436;8.672;2024-01-30T10:37:37;7.97;;;4.60;;
76256;SDS011;65074;50.436;8.672;2024-01-30T10:40:03;10.73;;;5.65;;
76256;SDS011;65074;50.436;8.672;2024-01-30T10:42:31;7.70;;;4.15;;
76256;SDS011;65074;50.436;8.672;2024-01-30T10:47:54;6.65;;;5.07;;
76256;SDS011;65074;50.436;8.672;2024-01-30T10:50:26;11.00;;;5.78;;
76256;SDS011;65074;50.436;8.672;2024-01-30T10:52:52;9.63;;;5.57;;
76256;SDS011;65074;50.436;8.672;2024-01-30T10:55:18;8.40;;;4.18;;
76256;SDS011;65074;50.436;8.672;2024-01-30T10:57:43;10.05;;;5.40;;
76256;SDS011;65074;50.436;8.672;2024-01-30T11:00:13;5.85;;;3.88;;
76256;SDS011;65074;50.436;8.672;2024-01-30T11:02:44;12.07;;;6.00;;
76256;SDS011;65074;50.436;8.672;2024-01-30T11:05:11;9.75;;;4.72;;
76256;SDS011;65074;50.436;8.672;2024-01-30T11:07:38;7.68;;;4.68;;
76256;SDS011;65074;50.436;8.672;2024-01-30T11:10:05;10.18;;;5.40;;
76256;SDS011;65074;50.436;8.672;2024-01-30T11:12:37;10.10;;;5.60;;
76256;SDS011;65074;50.436;8.672;2024-01-30T11:15:06;10.93;;;5.07;;
76256;SDS011;65074;50.436;8.672;2024-01-30T11:22:56;7.45;;;5.50;;
76256;SDS011;65074;50.436;8.672;2024-01-30T11:25:22;7.30;;;5.57;;
76256;SDS011;65074;50.436;8.672;2024-01-30T11:27:49;11.20;;;6.10;;
76256;SDS011;65074;50.436;8.672;2024-01-30T11:30:26;6.90;;;4.93;;
76256;SDS011;65074;50.436;8.672;2024-01-30T11:33:06;11.45;;;6.22;;
76256;SDS011;65074;50.436;8.672;2024-01-30T11:35:34;11.85;;;5.22;;
76256;SDS011;65074;50.436;8.672;2024-01-30T11:38:04;9.60;;;6.05;;
76256;SDS011;65074;50.436;8.672;2024-01-30T11:40:31;6.55;;;4.75;;
76256;SDS011;65074;50.436;8.672;2024-01-30T11:42:59;11.15;;;6.05;;
76256;SDS011;65074;50.436;8.672;2024-01-30T11:45:26;10.52;;;6.13;;
76256;SDS011;65074;50.436;8.672;2024-01-30T11:47:52;9.32;;;5.18;;
76256;SDS011;65074;50.436;8.672;2024-01-30T11:50:18;8.95;;;5.65;;
76256;SDS011;65074;50.436;8.672;2024-01-30T11:52:43;8.43;;;6.28;;
76256;SDS011;65074;50.436;8.672;2024-01-30T11:55:09;5.90;;;4.95;;
76256;SDS011;65074;50.436;8.672;2024-01-30T11:57:35;8.00;;;4.65;;
76256;SDS011;65074;50.436;8.672;2024-01-30T12:00:02;7.63;;;4.65;;
76256;SDS011;65074;50.436;8.672;2024-01-30T12:02:41;9.90;;;6.93;;
76256;SDS011;65074;50.436;8.672;2024-01-30T12:05:07;9.68;;;6.22;;
76256;SDS011;65074;50.436;8.672;2024-01-30T12:07:34;11.45;;;6.35;;
76256;SDS011;65074;50.436;8.672;2024-01-30T12:10:00;7.90;;;5.82;;
76256;SDS011;65074;50.436;8.672;2024-01-30T12:12:26;10.30;;;5.13;;
76256;SDS011;65074;50.436;8.672;2024-01-30T12:14:52;10.65;;;5.93;;
76256;SDS011;65074;50.436;8.672;2024-01-30T12:17:28;15.02;;;6.45;;
76256;SDS011;65074;50.436;8.672;2024-01-30T12:20:10;8.02;;;4.97;;
76256;SDS011;65074;50.436;8.672;2024-01-30T12:22:41;16.60;;;6.88;;
76256;SDS011;65074;50.436;8.672;2024-01-30T12:25:11;11.55;;;5.72;;
76256;SDS011;65074;50.436;8.672;2024-01-30T12:27:38;11.43;;;5.90;;
76256;SDS011;65074;50.436;8.672;2024-01-30T12:30:08;11.80;;;6.38;;
76256;SDS011;65074;50.436;8.672;2024-01-30T12:35:01;8.63;;;5.95;;
76256;SDS011;65074;50.436;8.672;2024-01-30T12:37:27;8.90;;;5.30;;
76256;SDS011;65074;50.436;8.672;2024-01-30T12:39:52;9.00;;;5.15;;
76256;SDS011;65074;50.436;8.672;2024-01-30T12:42:19;11.70;;;7.50;;
76256;SDS011;65074;50.436;8.672;2024-01-30T12:44:46;9.13;;;5.82;;
76256;SDS011;65074;50.436;8.672;2024-01-30T12:47:12;7.50;;;4.78;;
76256;SDS011;65074;50.436;8.672;2024-01-30T12:49:37;9.15;;;4.85;;
76256;SDS011;65074;50.436;8.672;2024-01-30T12:52:03;12.27;;;6.25;;
76256;SDS011;65074;50.436;8.672;2024-01-30T12:54:28;10.30;;;5.10;;
76256;SDS011;65074;50.436;8.672;2024-01-30T12:56:54;9.05;;;5.80;;
76256;SDS011;65074;50.436;8.672;2024-01-30T12:59:19;10.25;;;5.20;;
76256;SDS011;65074;50.436;8.672;2024-01-30T13:01:44;10.70;;;6.35;;
76256;SDS011;65074;50.436;8.672;2024-01-30T13:04:10;7.03;;;5.28;;
76256;SDS011;65074;50.436;8.672;2024-01-30T13:06:35;8.02;;;5.95;;
76256;SDS011;65074;50.436;8.672;2024-01-30T13:09:00;8.55;;;5.60;;
76256;SDS011;65074;50.436;8.672;2024-01-30T13:11:26;7.50;;;5.85;;
76256;SDS011;65074;50.436;8.672;2024-01-30T13:13:51;8.50;;;5.03;;
76256;SDS011;65074;50.436;8.672;2024-01-30T13:16:17;8.98;;;4.53;;
76256;SDS011;65074;50.436;8.672;2024-01-30T13:18:43;11.57;;;5.40;;
76256;SDS011;65074;50.436;8.672;2024-01-30T13:21:09;9.10;;;5.45;;
76256;SDS011;65074;50.436;8.672;2024-01-30T13:23:34;14.75;;;6.40;;
76256;SDS011;65074;50.436;8.672;2024-01-30T13:26:00;11.93;;;7.30;;
76256;SDS011;65074;50.436;8.672;2024-01-30T13:28:25;8.80;;;5.43;;
76256;SDS011;65074;50.436;8.672;2024-01-30T13:30:51;7.40;;;5.28;;
76256;SDS011;65074;50.436;8.672;2024-01-30T13:33:16;10.48;;;6.32;;
76256;SDS011;65074;50.436;8.672;2024-01-30T13:35:42;11.80;;;6.25;;
76256;SDS011;65074;50.436;8.672;2024-01-30T13:38:08;8.00;;;6.07;;
76256;SDS011;65074;50.436;8.672;2024-01-30T13:40:33;9.73;;;5.53;;
76256;SDS011;65074;50.436;8.672;2024-01-30T13:42:58;8.77;;;5.82;;
76256;SDS011;65074;50.436;8.672;2024-01-30T13:45:24;12.50;;;6.53;;
76256;SDS011;65074;50.436;8.672;2024-01-30T13:47:49;8.52;;;5.97;;
76256;SDS011;65074;50.436;8.672;2024-01-30T13:50:15;7.88;;;4.32;;
76256;SDS011;65074;50.436;8.672;2024-01-30T13:52:42;8.07;;;5.53;;
76256;SDS011;65074;50.436;8.672;2024-01-30T13:55:09;9.20;;;5.57;;
76256;SDS011;65074;50.436;8.672;2024-01-30T13:57:35;7.63;;;5.35;;
76256;SDS011;65074;50.436;8.672;2024-01-30T14:00:05;8.02;;;4.63;;
76256;SDS011;65074;50.436;8.672;2024-01-30T14:02:40;11.48;;;6.53;;
76256;SDS011;65074;50.436;8.672;2024-01-30T14:05:05;8.43;;;5.15;;
76256;SDS011;65074;50.436;8.672;2024-01-30T14:07:31;8.77;;;4.65;;
76256;SDS011;65074;50.436;8.672;2024-01-30T14:09:56;9.60;;;5.28;;
76256;SDS011;65074;50.436;8.672;2024-01-30T14:12:22;7.88;;;5.22;;
76256;SDS011;65074;50.436;8.672;2024-01-30T14:14:47;8.93;;;5.50;;
76256;SDS011;65074;50.436;8.672;2024-01-30T14:17:12;12.13;;;6.38;;
76256;SDS011;65074;50.436;8.672;2024-01-30T14:19:38;8.73;;;5.60;;
76256;SDS011;65074;50.436;8.672;2024-01-30T14:22:03;8.68;;;5.22;;
76256;SDS011;65074;50.436;8.672;2024-01-30T14:24:29;10.77;;;5.30;;
76256;SDS011;65074;50.436;8.672;2024-01-30T14:26:54;12.43;;;6.00;;
76256;SDS011;65074;50.436;8.672;2024-01-30T14:29:20;12.02;;;6.03;;
76256;SDS011;65074;50.436;8.672;2024-01-30T14:31:45;9.10;;;5.50;;
76256;SDS011;65074;50.436;8.672;2024-01-30T14:34:10;10.93;;;5.88;;
76256;SDS011;65074;50.436;8.672;2024-01-30T14:36:36;11.35;;;6.63;;
76256;SDS011;65074;50.436;8.672;2024-01-30T14:39:03;8.27;;;5.47;;
76256;SDS011;65074;50.436;8.672;2024-01-30T14:41:28;12.82;;;5.93;;
76256;SDS011;65074;50.436;8.672;2024-01-30T14:43:54;9.77;;;6.20;;
76256;SDS011;65074;50.436;8.672;2024-01-30T14:46:19;11.23;;;7.28;;
76256;SDS011;65074;50.436;8.672;2024-01-30T14:48:45;10.75;;;5.78;;